Time;durP1;ratioP1;P1;durP2;ratioP2;P2;SDS_P1;SDS_P2;PMS_P1;PMS_P2;Temp;Humidity;BMP_temperature;BMP_pressure;BME280_temperature;BME280_humidity;BME280_pressure;Samples;Min_cycle;Max_cycle;Signal;HPM_P1;HPM_P2
2023/06/17 00:01:17;;;;;;;7.75;7.05;;;18.80;50.80;;;;;;5115323;28;20036;-69
2023/06/17 00:03:43;;;;;;;8.43;6.93;;;18.80;50.60;;;;;;5112377;28;20132;-69
2023/06/17 00:06:10;;;;;;;8.07;6.88;;;18.80;50.90;;;;;;5114843;28;20035;-69
2023/06/17 00:08:36;;;;;;;9.27;6.82;;;18.70;50.90;;;;;;5114523;28;20047;-69
2023/06/17 00:11:02;;;;;;;7.38;6.60;;;18.70;51.00;;;;;;5114924;28;20051;-69
2023/06/17 00:13:28;;;;;;;8.43;6.38;;;18.70;51.20;;;;;;5113761;28;20093;-66
2023/06/17 00:15:56;;;;;;;7.65;6.95;;;18.70;51.30;;;;;;5106763;28;20149;-66
2023/06/17 00:18:24;;;;;;;8.48;6.70;;;18.60;51.30;;;;;;5107776;28;20109;-66
2023/06/17 00:20:57;;;;;;;8.50;6.43;;;18.60;51.40;;;;;;5098017;28;20058;-66
2023/06/17 00:23:23;;;;;;;8.13;7.30;;;18.60;51.40;;;;;;5113327;28;20054;-66
2023/06/17 00:25:49;;;;;;;8.68;7.03;;;18.50;51.70;;;;;;5113407;28;20059;-66
2023/06/17 00:28:16;;;;;;;7.78;6.75;;;18.50;51.80;;;;;;5109945;28;20119;-66
2023/06/17 00:30:46;;;;;;;7.78;7.00;;;18.50;51.90;;;;;;5096692;28;20486;-66
2023/06/17 00:33:12;;;;;;;11.30;7.45;;;18.50;52.00;;;;;;5113130;28;20114;-66
2023/06/17 00:35:38;;;;;;;10.70;7.00;;;18.40;52.10;;;;;;5094260;28;20135;-66
2023/06/17 00:38:03;;;;;;;7.47;6.65;;;18.40;52.30;;;;;;5111576;28;20101;-66
2023/06/17 00:40:29;;;;;;;7.20;6.30;;;18.40;52.30;;;;;;5106697;28;20472;-66
2023/06/17 00:42:55;;;;;;;7.93;7.13;;;18.40;52.30;;;;;;5092759;28;20048;-66
2023/06/17 00:45:20;;;;;;;8.95;7.30;;;18.40;52.40;;;;;;5075939;28;20072;-66
2023/06/17 00:47:46;;;;;;;8.75;7.68;;;18.30;52.50;;;;;;5093912;28;20048;-66
2023/06/17 00:50:14;;;;;;;9.13;7.38;;;18.30;52.60;;;;;;5112095;28;20043;-66
2023/06/17 00:52:41;;;;;;;6.88;6.20;;;18.30;52.80;;;;;;5095101;28;20118;-66
2023/06/17 00:55:11;;;;;;;9.93;7.25;;;18.30;53.00;;;;;;5092328;28;20048;-66
2023/06/17 00:57:38;;;;;;;9.07;7.55;;;18.20;53.10;;;;;;5092315;28;20071;-66
2023/06/17 01:00:12;;;;;;;8.77;7.55;;;18.20;53.30;;;;;;5107303;28;20058;-66
2023/06/17 01:02:42;;;;;;;8.55;7.70;;;18.20;53.50;;;;;;5094668;28;20524;-66
2023/06/17 01:05:11;;;;;;;8.27;7.47;;;18.20;53.60;;;;;;5110565;28;20494;-66
2023/06/17 01:08:04;;;;;;;8.52;7.68;;;18.10;53.70;;;;;;5112136;28;20122;-66
2023/06/17 01:10:53;;;;;;;8.23;7.15;;;18.10;53.80;;;;;;5094001;28;20047;-66
2023/06/17 01:13:20;;;;;;;9.27;8.27;;;18.10;53.90;;;;;;5093309;28;20395;-66
2023/06/17 01:15:46;;;;;;;9.80;8.00;;;18.00;54.20;;;;;;5092056;28;20044;-66
2023/06/17 01:18:12;;;;;;;7.68;6.95;;;18.00;54.40;;;;;;5095754;28;20055;-66
2023/06/17 01:20:39;;;;;;;8.52;7.65;;;18.00;54.40;;;;;;5111936;28;20414;-66
2023/06/17 01:23:06;;;;;;;9.68;8.20;;;18.00;54.30;;;;;;5099461;28;20073;-66
2023/06/17 01:25:32;;;;;;;8.82;8.00;;;18.00;54.40;;;;;;5111942;28;20039;-65
2023/06/17 01:28:12;;;;;;;8.60;7.43;;;17.90;54.50;;;;;;5111541;28;20048;-65
2023/06/17 01:30:38;;;;;;;8.38;7.57;;;17.90;54.50;;;;;;5094076;28;20032;-66
2023/06/17 01:33:03;;;;;;;7.20;6.53;;;17.90;54.50;;;;;;5113249;28;20493;-66
2023/06/17 01:35:32;;;;;;;7.95;7.15;;;17.90;54.60;;;;;;5111692;28;20051;-66
2023/06/17 01:38:18;;;;;;;9.52;8.52;;;17.90;54.50;;;;;;5102859;28;20047;-66
2023/06/17 01:40:49;;;;;;;10.82;7.72;;;17.90;54.50;;;;;;5098051;28;20133;-66
2023/06/17 01:43:16;;;;;;;9.10;7.90;;;17.80;54.50;;;;;;5106254;28;20501;-66
2023/06/17 01:45:42;;;;;;;9.30;8.20;;;17.80;54.50;;;;;;5091593;28;20384;-66
2023/06/17 01:48:08;;;;;;;9.18;6.90;;;17.80;54.50;;;;;;5092818;28;20456;-65
2023/06/17 01:50:34;;;;;;;8.50;7.50;;;17.70;54.30;;;;;;5091436;28;20068;-65
2023/06/17 01:53:00;;;;;;;8.15;7.35;;;17.70;54.20;;;;;;5094820;28;20070;-66
2023/06/17 01:55:25;;;;;;;8.45;7.65;;;17.70;54.20;;;;;;5107438;28;20048;-66
2023/06/17 01:57:51;;;;;;;9.70;8.70;;;17.70;54.30;;;;;;5079476;28;20035;-65
2023/06/17 02:00:17;;;;;;;9.95;8.30;;;17.60;54.30;;;;;;5111472;28;20043;-65
2023/06/17 02:02:43;;;;;;;8.73;7.82;;;17.60;54.40;;;;;;5090593;28;20038;-65
2023/06/17 02:05:08;;;;;;;8.68;7.68;;;17.60;54.50;;;;;;5092522;28;20039;-66
2023/06/17 02:07:34;;;;;;;9.45;8.45;;;17.60;54.60;;;;;;5090940;28;20506;-65
2023/06/17 02:10:00;;;;;;;9.45;8.55;;;17.60;54.80;;;;;;5090867;28;20083;-65
2023/06/17 02:12:26;;;;;;;10.25;9.25;;;17.50;54.90;;;;;;5099964;28;20072;-65
2023/06/17 02:14:52;;;;;;;8.60;7.80;;;17.50;55.00;;;;;;5093423;28;20127;-65
2023/06/17 02:17:18;;;;;;;10.73;9.07;;;17.50;55.10;;;;;;5090729;28;20047;-66
2023/06/17 02:19:44;;;;;;;9.98;7.93;;;17.50;55.30;;;;;;5073254;28;20040;-65
2023/06/17 02:22:10;;;;;;;9.98;9.07;;;17.50;55.10;;;;;;5101162;28;20077;-66
2023/06/17 02:24:35;;;;;;;10.45;9.45;;;17.40;55.30;;;;;;5108391;28;20039;-65
2023/06/17 02:27:01;;;;;;;11.25;9.85;;;17.40;55.40;;;;;;5108815;28;20487;-65
2023/06/17 02:29:27;;;;;;;10.80;9.40;;;17.40;55.50;;;;;;5091972;28;20233;-65
2023/06/17 02:31:53;;;;;;;10.27;8.68;;;17.30;55.50;;;;;;5093400;28;20102;-65
2023/06/17 02:34:19;;;;;;;9.45;8.55;;;17.30;55.50;;;;;;5102867;28;20150;-65
2023/06/17 02:36:46;;;;;;;8.32;7.47;;;17.30;55.40;;;;;;5093831;28;20035;-65
2023/06/17 02:39:11;;;;;;;8.75;7.72;;;17.20;55.30;;;;;;5110482;28;20062;-65
2023/06/17 02:41:38;;;;;;;8.25;7.45;;;17.20;55.50;;;;;;5103861;28;20052;-66
2023/06/17 02:44:04;;;;;;;8.98;7.70;;;17.20;55.50;;;;;;5112041;28;20065;-66
2023/06/17 02:46:30;;;;;;;9.52;8.65;;;17.20;55.60;;;;;;5110170;28;20067;-65
2023/06/17 02:48:56;;;;;;;9.43;8.57;;;17.20;55.60;;;;;;5112289;28;20039;-65
2023/06/17 02:51:23;;;;;;;8.75;7.95;;;17.10;55.50;;;;;;5098076;28;20112;-65
2023/06/17 02:53:49;;;;;;;9.20;8.05;;;17.10;55.50;;;;;;5071672;28;20105;-66
2023/06/17 02:56:15;;;;;;;10.15;9.23;;;17.10;55.70;;;;;;5089319;28;20463;-65
2023/06/17 02:58:43;;;;;;;9.15;8.25;;;17.10;55.90;;;;;;5112186;28;20046;-65
2023/06/17 03:01:11;;;;;;;11.57;10.27;;;17.00;56.10;;;;;;5101347;28;20044;-65
2023/06/17 03:03:37;;;;;;;10.32;9.32;;;17.00;56.50;;;;;;5109104;28;20139;-65
2023/06/17 03:06:05;;;;;;;9.48;8.55;;;17.00;56.60;;;;;;5112166;28;20116;-65
2023/06/17 03:08:32;;;;;;;10.05;8.35;;;17.00;56.60;;;;;;5110799;28;20090;-65
2023/06/17 03:10:59;;;;;;;10.90;9.65;;;17.00;56.80;;;;;;5103319;28;20127;-65
2023/06/17 03:13:26;;;;;;;11.75;10.40;;;17.00;57.40;;;;;;5106258;28;20126;-65
2023/06/17 03:15:53;;;;;;;11.60;9.85;;;17.00;57.60;;;;;;5093814;28;20414;-65
2023/06/17 03:18:21;;;;;;;10.90;9.05;;;17.00;57.70;;;;;;5111780;28;20044;-65
2023/06/17 03:20:47;;;;;;;12.82;10.05;;;17.00;57.90;;;;;;5106045;28;20040;-66
2023/06/17 03:23:13;;;;;;;9.50;8.43;;;17.10;58.30;;;;;;5105079;28;20039;-65
2023/06/17 03:25:38;;;;;;;9.10;8.23;;;17.00;58.10;;;;;;5110414;28;20039;-65
2023/06/17 03:28:05;;;;;;;9.15;8.02;;;17.00;58.10;;;;;;5111803;28;20441;-66
2023/06/17 03:30:30;;;;;;;9.35;8.13;;;17.00;58.20;;;;;;5094277;28;20036;-65
2023/06/17 03:32:58;;;;;;;8.48;7.57;;;17.10;58.30;;;;;;5102617;28;20071;-68
2023/06/17 03:35:24;;;;;;;9.85;8.85;;;17.10;58.30;;;;;;5095539;28;20039;-69
2023/06/17 03:37:50;;;;;;;9.77;8.77;;;17.10;58.40;;;;;;5093729;28;20130;-69
2023/06/17 03:40:16;;;;;;;10.07;9.00;;;17.10;58.60;;;;;;5095554;28;20130;-69
2023/06/17 03:42:42;;;;;;;10.75;8.35;;;17.10;58.80;;;;;;5085577;28;20036;-69
2023/06/17 03:45:08;;;;;;;9.10;8.20;;;17.10;58.90;;;;;;5094323;28;20043;-69
2023/06/17 03:47:34;;;;;;;11.13;10.02;;;17.10;58.90;;;;;;5093874;28;20044;-65
2023/06/17 03:50:00;;;;;;;9.70;8.70;;;17.10;59.50;;;;;;5094021;28;20076;-65
2023/06/17 03:52:25;;;;;;;11.50;10.05;;;17.20;59.60;;;;;;5106192;28;20098;-65
2023/06/17 03:54:53;;;;;;;10.70;9.60;;;17.20;59.50;;;;;;5095103;28;20089;-65
2023/06/17 03:57:19;;;;;;;10.18;8.38;;;17.20;59.50;;;;;;5094865;28;20044;-65
2023/06/17 03:59:46;;;;;;;11.32;9.30;;;17.20;59.50;;;;;;5093605;28;20036;-65
2023/06/17 04:02:12;;;;;;;10.30;9.20;;;17.20;59.70;;;;;;5107502;28;20042;-65
2023/06/17 04:04:38;;;;;;;11.82;9.80;;;17.30;59.80;;;;;;5094733;28;20461;-66
2023/06/17 04:07:04;;;;;;;11.88;10.43;;;17.30;59.90;;;;;;5093705;28;20368;-65
2023/06/17 04:09:30;;;;;;;12.77;9.75;;;17.30;60.30;;;;;;5107408;28;20047;-65
2023/06/17 04:11:57;;;;;;;10.48;9.00;;;17.30;60.40;;;;;;5104548;28;20043;-65
2023/06/17 04:14:23;;;;;;;11.73;10.63;;;17.40;60.30;;;;;;5096682;28;20043;-68
2023/06/17 04:16:51;;;;;;;9.50;8.60;;;17.40;60.60;;;;;;5114924;28;20111;-68
2023/06/17 04:19:17;;;;;;;9.90;8.95;;;17.40;60.60;;;;;;5110508;28;20400;-68
2023/06/17 04:21:46;;;;;;;12.00;10.65;;;17.50;60.40;;;;;;5098838;28;20052;-68
2023/06/17 04:24:11;;;;;;;9.73;8.70;;;17.40;60.70;;;;;;5113450;28;20478;-68
2023/06/17 04:26:37;;;;;;;10.88;9.80;;;17.50;60.90;;;;;;5113422;28;20036;-68
2023/06/17 04:29:05;;;;;;;9.27;8.38;;;17.50;61.10;;;;;;5113235;28;20039;-68
2023/06/17 04:31:35;;;;;;;11.27;8.50;;;17.50;60.70;;;;;;5103989;28;20039;-68
2023/06/17 04:34:05;;;;;;;11.68;8.20;;;17.50;60.50;;;;;;5114729;28;20039;-68
2023/06/17 04:36:30;;;;;;;9.50;8.50;;;17.60;60.80;;;;;;5100977;28;20047;-68
2023/06/17 04:38:56;;;;;;;11.75;10.65;;;17.60;60.80;;;;;;5092371;28;20052;-68
2023/06/17 04:41:23;;;;;;;10.18;9.18;;;17.70;61.20;;;;;;5101611;28;20056;-68
2023/06/17 04:43:49;;;;;;;11.38;8.40;;;17.70;61.50;;;;;;5092161;28;20114;-68
2023/06/17 04:46:19;;;;;;;10.85;9.05;;;17.70;61.40;;;;;;5093913;28;20115;-69
2023/06/17 04:48:45;;;;;;;12.55;9.98;;;17.70;61.60;;;;;;5077027;28;20051;-69
2023/06/17 04:51:12;;;;;;;11.95;8.82;;;17.80;61.80;;;;;;5093136;28;20534;-69
2023/06/17 04:53:39;;;;;;;10.75;9.65;;;17.80;61.70;;;;;;5109036;28;20051;-69
2023/06/17 04:56:08;;;;;;;12.27;10.82;;;17.80;61.90;;;;;;5095019;28;20445;-69
2023/06/17 04:58:33;;;;;;;11.48;10.27;;;17.90;61.90;;;;;;5092379;28;20040;-68
2023/06/17 05:00:59;;;;;;;12.40;10.35;;;17.90;62.10;;;;;;5094938;28;20063;-68
2023/06/17 05:03:25;;;;;;;18.27;13.48;;;17.90;62.20;;;;;;5075607;28;20059;-69
2023/06/17 05:05:53;;;;;;;13.48;11.48;;;17.90;62.80;;;;;;5109400;28;20157;-69
2023/06/17 05:08:19;;;;;;;15.27;13.32;;;18.00;63.10;;;;;;5113170;28;20043;-65
2023/06/17 05:10:44;;;;;;;16.77;11.68;;;18.00;63.00;;;;;;5105272;28;20498;-66
2023/06/17 05:13:10;;;;;;;13.85;12.40;;;18.00;63.30;;;;;;5092313;28;20056;-65
2023/06/17 05:15:36;;;;;;;15.63;12.27;;;18.10;63.40;;;;;;5095876;28;20040;-65
2023/06/17 05:18:01;;;;;;;13.77;12.02;;;18.00;63.20;;;;;;5093541;28;20603;-65
2023/06/17 05:20:27;;;;;;;15.40;12.93;;;18.10;63.30;;;;;;5097497;28;20133;-65
2023/06/17 05:22:53;;;;;;;14.05;12.55;;;18.10;63.40;;;;;;5104413;28;20660;-68
2023/06/17 05:25:19;;;;;;;16.00;14.30;;;18.20;63.70;;;;;;5093961;28;20117;-68
2023/06/17 05:27:44;;;;;;;16.10;14.40;;;18.20;63.90;;;;;;5093353;28;20035;-69
2023/06/17 05:30:10;;;;;;;18.00;16.10;;;18.20;64.00;;;;;;5092333;28;20131;-69
2023/06/17 05:32:36;;;;;;;17.38;15.18;;;18.30;64.60;;;;;;5093467;28;20036;-69
2023/06/17 05:35:02;;;;;;;18.27;16.10;;;18.30;64.80;;;;;;5099368;28;20122;-69
2023/06/17 05:37:28;;;;;;;15.25;12.93;;;18.30;65.20;;;;;;5113435;28;20036;-69
2023/06/17 05:39:53;;;;;;;19.10;16.23;;;18.30;65.20;;;;;;5111535;28;20047;-69
2023/06/17 05:42:19;;;;;;;18.40;16.45;;;18.40;65.80;;;;;;5074931;28;20052;-69
2023/06/17 05:44:45;;;;;;;17.75;15.93;;;18.40;65.80;;;;;;5095934;28;20129;-69
2023/06/17 05:47:11;;;;;;;15.25;13.65;;;18.40;65.90;;;;;;5111957;28;20089;-69
2023/06/17 05:49:36;;;;;;;19.70;15.52;;;18.40;65.70;;;;;;5102278;28;20031;-69
2023/06/17 05:52:02;;;;;;;15.77;14.13;;;18.50;66.00;;;;;;5110621;28;20355;-69
2023/06/17 05:54:28;;;;;;;15.73;13.68;;;18.50;65.90;;;;;;5109708;28;20035;-65
2023/06/17 05:56:53;;;;;;;18.67;14.82;;;18.50;65.80;;;;;;5091176;28;20040;-65
2023/06/17 05:59:19;;;;;;;15.40;12.45;;;18.50;65.90;;;;;;5092717;28;20032;-65
2023/06/17 06:01:45;;;;;;;17.70;15.10;;;18.60;66.00;;;;;;5109187;28;20363;-65
2023/06/17 06:04:10;;;;;;;18.63;15.68;;;18.60;66.30;;;;;;5110524;28;20036;-65
2023/06/17 06:06:36;;;;;;;16.42;14.73;;;18.70;66.80;;;;;;5093766;28;20032;-65
2023/06/17 06:09:02;;;;;;;20.17;16.35;;;18.80;67.00;;;;;;5092309;28;20056;-65
2023/06/17 06:11:28;;;;;;;17.52;15.35;;;18.90;67.30;;;;;;5104791;28;20051;-65
2023/06/17 06:13:53;;;;;;;17.23;14.32;;;19.00;67.20;;;;;;5111305;28;20127;-65
2023/06/17 06:16:19;;;;;;;18.15;14.68;;;19.20;67.00;;;;;;5091353;28;20086;-65
2023/06/17 06:18:45;;;;;;;20.33;17.88;;;19.20;66.50;;;;;;5090833;28;20043;-65
2023/06/17 06:21:10;;;;;;;23.30;17.77;;;19.40;66.50;;;;;;5103140;28;20155;-65
2023/06/17 06:23:37;;;;;;;17.05;14.65;;;19.50;65.90;;;;;;5070798;28;20036;-65
2023/06/17 06:26:02;;;;;;;18.48;16.48;;;19.60;65.70;;;;;;5107413;28;20042;-65
2023/06/17 06:28:28;;;;;;;17.58;15.75;;;19.70;65.70;;;;;;5110762;28;20411;-66
2023/06/17 06:30:54;;;;;;;17.85;15.38;;;19.80;65.30;;;;;;5102369;28;20048;-65
2023/06/17 06:33:21;;;;;;;16.75;15.00;;;19.90;65.00;;;;;;5102897;28;20115;-65
2023/06/17 06:35:47;;;;;;;14.15;12.73;;;20.10;64.40;;;;;;5095132;28;20044;-65
2023/06/17 06:38:13;;;;;;;16.80;14.57;;;20.30;63.70;;;;;;5091249;28;20052;-65
2023/06/17 06:40:40;;;;;;;15.13;12.88;;;20.40;63.20;;;;;;5098187;28;20047;-65
2023/06/17 06:43:06;;;;;;;19.95;15.60;;;20.60;62.90;;;;;;5110724;28;20040;-65
2023/06/17 06:45:31;;;;;;;14.57;12.80;;;20.70;62.50;;;;;;5097469;28;20089;-65
2023/06/17 06:47:57;;;;;;;16.02;13.57;;;20.80;61.90;;;;;;5090671;28;20047;-65
2023/06/17 06:50:24;;;;;;;14.68;11.73;;;20.90;61.60;;;;;;5097551;28;20039;-65
2023/06/17 06:52:50;;;;;;;14.50;13.00;;;21.00;61.00;;;;;;5105702;28;20080;-65
2023/06/17 06:55:16;;;;;;;19.05;14.27;;;21.10;61.20;;;;;;5095659;28;20032;-65
2023/06/17 06:57:42;;;;;;;13.40;12.02;;;21.20;60.90;;;;;;5093899;28;20039;-66
2023/06/17 07:00:09;;;;;;;15.77;12.10;;;21.30;60.10;;;;;;5107422;28;20081;-65
2023/06/17 07:02:35;;;;;;;11.63;10.43;;;21.40;60.00;;;;;;5090665;28;20047;-66
2023/06/17 07:05:03;;;;;;;15.93;13.38;;;21.60;59.90;;;;;;5075098;28;20047;-66
2023/06/17 07:07:30;;;;;;;14.25;12.45;;;21.80;59.50;;;;;;5104998;28;20051;-66
2023/06/17 07:09:56;;;;;;;14.57;10.75;;;21.90;58.60;;;;;;5114960;28;20046;-66
2023/06/17 07:12:21;;;;;;;12.77;10.32;;;21.90;58.30;;;;;;5097675;28;20032;-66
2023/06/17 07:14:47;;;;;;;11.85;10.07;;;22.00;58.60;;;;;;5095795;28;20386;-66
2023/06/17 07:17:13;;;;;;;11.73;10.15;;;22.20;58.60;;;;;;5077254;28;20044;-66
2023/06/17 07:19:39;;;;;;;14.48;10.88;;;22.30;57.60;;;;;;5095365;28;20051;-66
2023/06/17 07:22:07;;;;;;;12.35;9.23;;;22.50;57.40;;;;;;5110080;28;20047;-66
2023/06/17 07:24:32;;;;;;;11.40;10.30;;;22.60;56.90;;;;;;5115589;28;20061;-66
2023/06/17 07:26:58;;;;;;;9.80;8.80;;;22.80;56.70;;;;;;5101300;28;20124;-66
2023/06/17 07:29:25;;;;;;;12.23;10.20;;;23.10;56.40;;;;;;5100007;28;20101;-66
2023/06/17 07:31:50;;;;;;;12.07;9.93;;;23.30;55.90;;;;;;5095244;28;20119;-66
2023/06/17 07:34:16;;;;;;;12.40;9.20;;;23.40;55.60;;;;;;5111983;28;20122;-65
2023/06/17 07:36:42;;;;;;;12.73;9.85;;;23.60;54.90;;;;;;5111709;28;20076;-66
2023/06/17 07:39:08;;;;;;;11.82;9.55;;;23.80;54.30;;;;;;5106075;28;20047;-66
2023/06/17 07:41:33;;;;;;;9.98;8.73;;;23.80;53.70;;;;;;5095043;28;20079;-66
2023/06/17 07:43:59;;;;;;;13.90;10.57;;;24.00;53.60;;;;;;5109937;28;20044;-65
2023/06/17 07:46:25;;;;;;;13.05;10.52;;;24.20;53.30;;;;;;5110625;28;20040;-66
2023/06/17 07:48:51;;;;;;;12.13;9.20;;;24.30;52.70;;;;;;5095323;28;20333;-68
2023/06/17 07:51:17;;;;;;;11.75;9.35;;;24.30;52.30;;;;;;5093956;28;20052;-68
2023/06/17 07:53:42;;;;;;;10.52;8.63;;;24.40;52.30;;;;;;5094258;28;20044;-68
2023/06/17 07:56:08;;;;;;;9.23;7.88;;;24.60;52.00;;;;;;5095996;28;20040;-69
2023/06/17 07:58:34;;;;;;;11.18;7.68;;;24.80;51.80;;;;;;5097667;28;20043;-69
2023/06/17 08:01:00;;;;;;;10.57;8.35;;;25.10;50.90;;;;;;5107112;28;20040;-71
2023/06/17 08:03:27;;;;;;;11.68;9.70;;;25.40;50.70;;;;;;5103405;28;20036;-71
2023/06/17 08:05:52;;;;;;;11.77;8.35;;;25.80;49.80;;;;;;5103977;28;20035;-70
2023/06/17 08:08:18;;;;;;;10.93;8.75;;;25.90;49.70;;;;;;5094209;28;20529;-70
2023/06/17 08:10:44;;;;;;;10.30;6.50;;;26.10;49.30;;;;;;5097000;28;20136;-69
2023/06/17 08:13:10;;;;;;;10.45;7.78;;;26.20;48.60;;;;;;5092873;28;20106;-70
2023/06/17 08:15:35;;;;;;;8.88;7.65;;;26.40;48.60;;;;;;5093671;28;20039;-70
2023/06/17 08:18:01;;;;;;;7.93;7.18;;;26.70;48.00;;;;;;5093064;28;20525;-69
2023/06/17 08:20:27;;;;;;;8.57;6.32;;;26.90;46.90;;;;;;5111484;28;20043;-69
2023/06/17 08:22:53;;;;;;;9.43;7.28;;;27.10;46.50;;;;;;5108910;28;20082;-71
2023/06/17 08:25:18;;;;;;;10.27;6.68;;;27.30;46.70;;;;;;5093536;28;20089;-71
2023/06/17 08:27:47;;;;;;;9.05;6.82;;;27.50;46.40;;;;;;5092918;28;20040;-71
2023/06/17 08:30:13;;;;;;;9.35;7.05;;;27.80;46.50;;;;;;5090666;28;20442;-71
2023/06/17 08:32:39;;;;;;;9.63;7.32;;;28.00;45.60;;;;;;5109709;28;20027;-71
2023/06/17 08:35:06;;;;;;;9.05;7.45;;;28.20;44.80;;;;;;5112374;28;20435;-72
2023/06/17 08:37:35;;;;;;;7.70;6.75;;;28.30;44.00;;;;;;5112920;28;20031;-71
2023/06/17 08:40:04;;;;;;;11.15;7.07;;;28.50;44.00;;;;;;5111912;28;20050;-71
2023/06/17 08:42:29;;;;;;;7.28;6.18;;;28.60;43.50;;;;;;5108588;28;20051;-71
2023/06/17 08:44:59;;;;;;;9.20;7.75;;;28.80;43.20;;;;;;5093016;28;20157;-72
2023/06/17 08:47:26;;;;;;;8.57;6.60;;;29.00;42.70;;;;;;5093919;28;20043;-72
2023/06/17 08:49:55;;;;;;;9.10;6.60;;;29.10;42.50;;;;;;5095668;28;20074;-72
2023/06/17 08:52:22;;;;;;;7.30;6.25;;;29.30;42.60;;;;;;5092963;28;20117;-72
2023/06/17 08:54:48;;;;;;;9.25;6.38;;;29.40;42.40;;;;;;5093695;28;20043;-71
2023/06/17 08:57:14;;;;;;;9.63;6.05;;;29.50;42.10;;;;;;5093613;28;20067;-71
2023/06/17 08:59:41;;;;;;;7.75;6.63;;;29.70;42.20;;;;;;5112358;28;20086;-72
2023/06/17 09:02:07;;;;;;;8.85;7.45;;;29.80;41.70;;;;;;5075053;28;20079;-71
2023/06/17 09:04:35;;;;;;;7.57;6.45;;;29.90;42.10;;;;;;5087555;28;20039;-69
2023/06/17 09:07:01;;;;;;;8.88;6.50;;;29.90;41.50;;;;;;5074409;28;20148;-69
2023/06/17 09:09:26;;;;;;;8.00;6.78;;;30.10;41.40;;;;;;5087078;28;20191;-70
2023/06/17 09:11:52;;;;;;;7.35;6.50;;;30.10;41.30;;;;;;5087573;28;20054;-69
2023/06/17 09:14:21;;;;;;;9.30;6.03;;;30.20;41.10;;;;;;5087773;28;20047;-70
2023/06/17 09:16:49;;;;;;;8.77;6.10;;;30.20;41.40;;;;;;5086386;28;20118;-70
2023/06/17 09:19:15;;;;;;;6.95;5.75;;;30.40;41.00;;;;;;5088254;28;20048;-70
2023/06/17 09:21:41;;;;;;;9.90;6.63;;;30.40;40.70;;;;;;5087088;28;20040;-69
2023/06/17 09:24:10;;;;;;;7.20;6.50;;;30.50;40.00;;;;;;5086563;28;20633;-70
2023/06/17 09:26:42;;;;;;;6.55;5.85;;;30.50;40.50;;;;;;5086788;28;20108;-71
2023/06/17 09:29:12;;;;;;;8.73;6.38;;;30.60;40.70;;;;;;5086207;28;20080;-71
2023/06/17 09:31:48;;;;;;;6.72;5.97;;;30.70;40.70;;;;;;5086599;28;20044;-71
2023/06/17 09:34:14;;;;;;;9.23;6.18;;;30.80;40.30;;;;;;5086993;28;20126;-71
2023/06/17 09:36:40;;;;;;;8.48;5.72;;;30.80;39.80;;;;;;5086289;28;20494;-71
2023/06/17 09:39:09;;;;;;;9.48;6.20;;;31.00;39.90;;;;;;5086254;28;20044;-71
2023/06/17 09:41:44;;;;;;;9.10;7.30;;;31.00;39.60;;;;;;5085961;28;20040;-70
2023/06/17 09:44:14;;;;;;;9.02;6.13;;;31.00;39.50;;;;;;5092445;28;20344;-70
2023/06/17 09:46:46;;;;;;;7.50;5.40;;;30.90;39.90;;;;;;5095586;28;20051;-70
2023/06/17 09:49:15;;;;;;;6.40;5.32;;;30.90;39.50;;;;;;5092774;28;20054;-69
2023/06/17 09:51:42;;;;;;;7.47;5.75;;;30.90;39.70;;;;;;5092650;28;20035;-69
2023/06/17 09:54:08;;;;;;;7.38;6.10;;;30.80;39.40;;;;;;5091655;28;20051;-69
2023/06/17 09:56:35;;;;;;;9.75;6.00;;;30.90;39.50;;;;;;5092768;28;20039;-69
2023/06/17 09:59:07;;;;;;;7.90;5.93;;;30.90;39.60;;;;;;5092709;28;20452;-69
2023/06/17 10:01:38;;;;;;;8.93;6.57;;;30.90;39.50;;;;;;5091644;28;20048;-69
2023/06/17 10:04:04;;;;;;;8.73;7.03;;;31.00;39.30;;;;;;5091651;28;20043;-69
2023/06/17 10:06:32;;;;;;;8.45;5.68;;;31.00;39.10;;;;;;5082947;28;20039;-67
2023/06/17 10:08:58;;;;;;;6.22;5.10;;;30.80;39.70;;;;;;5094530;28;20121;-67
2023/06/17 10:11:25;;;;;;;8.95;6.07;;;30.70;39.70;;;;;;5112837;28;20043;-67
2023/06/17 10:14:01;;;;;;;8.43;6.28;;;30.60;39.50;;;;;;5111784;28;20121;-66
2023/06/17 10:16:31;;;;;;;9.18;5.65;;;30.60;39.80;;;;;;5112777;28;20089;-67
2023/06/17 10:19:01;;;;;;;7.85;6.20;;;30.70;39.90;;;;;;5112712;28;20050;-68
2023/06/17 10:21:29;;;;;;;7.70;6.50;;;30.60;39.70;;;;;;5080522;28;20133;-69
2023/06/17 10:23:57;;;;;;;6.43;5.28;;;30.70;39.40;;;;;;5092269;28;20093;-70
2023/06/17 10:26:23;;;;;;;9.40;5.80;;;30.70;39.60;;;;;;5090912;28;20043;-71
2023/06/17 10:29:01;;;;;;;8.30;6.43;;;30.70;39.50;;;;;;5091214;28;20040;-70
2023/06/17 10:31:32;;;;;;;6.50;5.80;;;30.70;39.90;;;;;;5090902;28;20454;-70
2023/06/17 10:34:01;;;;;;;9.00;6.20;;;30.70;39.70;;;;;;5090904;28;20491;-71
2023/06/17 10:36:28;;;;;;;8.15;6.72;;;30.80;39.90;;;;;;5091922;28;20096;-70
2023/06/17 10:38:58;;;;;;;7.70;6.00;;;30.80;39.40;;;;;;5091771;28;20158;-70
2023/06/17 10:41:55;;;;;;;8.35;5.50;;;30.80;39.40;;;;;;5090208;28;20066;-70
2023/06/17 10:44:42;;;;;;;7.15;6.10;;;30.80;39.40;;;;;;5075322;28;20097;-70
2023/06/17 10:47:21;;;;;;;7.75;5.60;;;30.70;39.20;;;;;;5090650;28;20059;-70
2023/06/17 10:49:49;;;;;;;8.05;5.95;;;30.60;39.90;;;;;;5092339;28;20493;-71
2023/06/17 10:52:16;;;;;;;5.68;4.70;;;30.60;40.00;;;;;;5104797;28;20051;-71
2023/06/17 10:54:49;;;;;;;7.13;5.88;;;30.70;39.90;;;;;;5112248;28;20198;-71
2023/06/17 10:57:14;;;;;;;8.30;5.72;;;30.70;39.20;;;;;;5112300;28;20063;-71
2023/06/17 10:59:40;;;;;;;6.38;5.00;;;30.70;39.40;;;;;;5112185;28;20048;-71
2023/06/17 11:02:07;;;;;;;7.45;4.80;;;30.80;39.60;;;;;;5110653;28;20451;-71
2023/06/17 11:04:43;;;;;;;5.57;4.90;;;30.80;39.50;;;;;;5112222;28;20042;-71
2023/06/17 11:07:09;;;;;;;7.40;4.93;;;30.80;39.20;;;;;;5108690;28;20514;-71
2023/06/17 11:09:36;;;;;;;7.00;5.03;;;31.00;39.00;;;;;;5090198;28;20048;-70
2023/06/17 11:12:03;;;;;;;5.25;4.63;;;31.00;38.70;;;;;;5090416;28;20079;-70
2023/06/17 11:14:33;;;;;;;7.07;5.55;;;31.10;38.70;;;;;;5091652;28;20044;-70
2023/06/17 11:16:58;;;;;;;7.90;5.45;;;31.20;38.60;;;;;;5090483;28;20056;-71
2023/06/17 11:19:24;;;;;;;8.93;5.28;;;31.20;38.50;;;;;;5091668;28;20165;-71
2023/06/17 11:22:07;;;;;;;6.30;5.10;;;31.20;38.20;;;;;;5091541;28;20090;-71
2023/06/17 11:24:36;;;;;;;6.18;4.80;;;31.20;38.00;;;;;;5092781;28;20114;-71
2023/06/17 11:27:05;;;;;;;6.88;4.32;;;31.20;37.60;;;;;;5090518;28;20040;-71
2023/06/17 11:29:31;;;;;;;7.38;4.45;;;31.20;37.30;;;;;;5090122;28;20044;-71
2023/06/17 11:32:01;;;;;;;7.07;4.55;;;31.30;37.60;;;;;;5091535;28;20093;-71
2023/06/17 11:34:31;;;;;;;7.05;5.15;;;31.30;37.50;;;;;;5090346;28;20083;-70
2023/06/17 11:36:58;;;;;;;6.50;4.88;;;31.30;37.60;;;;;;5090498;28;20379;-70
2023/06/17 11:39:26;;;;;;;6.22;4.40;;;31.30;37.60;;;;;;5104388;28;20059;-70
2023/06/17 11:41:52;;;;;;;9.52;5.45;;;31.30;37.70;;;;;;5111849;28;20514;-70
2023/06/17 11:44:19;;;;;;;7.13;4.65;;;31.40;37.20;;;;;;5112004;28;20168;-70
2023/06/17 11:46:49;;;;;;;5.55;4.75;;;31.30;37.60;;;;;;5110414;28;20048;-70
2023/06/17 11:49:15;;;;;;;5.32;4.40;;;31.30;37.60;;;;;;5110575;28;20047;-70
2023/06/17 11:51:47;;;;;;;6.43;4.43;;;31.30;37.50;;;;;;5111456;28;20046;-69
2023/06/17 11:54:13;;;;;;;6.72;4.18;;;31.30;37.40;;;;;;5098258;28;20044;-69
2023/06/17 11:56:40;;;;;;;4.60;4.07;;;31.30;37.80;;;;;;5095236;28;20067;-69
2023/06/17 11:59:06;;;;;;;7.28;4.57;;;31.40;37.80;;;;;;5093773;28;20048;-69
2023/06/17 12:01:32;;;;;;;5.43;4.50;;;31.40;38.00;;;;;;5094872;28;20040;-66
2023/06/17 12:03:58;;;;;;;6.20;4.50;;;31.50;37.80;;;;;;5093504;28;20042;-66
2023/06/17 12:06:24;;;;;;;7.97;4.90;;;31.40;36.90;;;;;;5094701;28;20122;-66
2023/06/17 12:09:06;;;;;;;5.55;4.85;;;31.40;36.00;;;;;;5093699;28;20044;-66
2023/06/17 12:11:35;;;;;;;13.02;5.55;;;31.30;36.60;;;;;;5074250;28;20036;-67
2023/06/17 12:14:07;;;;;;;4.68;4.18;;;31.30;37.00;;;;;;5072938;28;20388;-67
2023/06/17 12:16:34;;;;;;;6.20;4.78;;;31.30;37.30;;;;;;5073176;28;20044;-67
2023/06/17 12:19:09;;;;;;;6.22;4.38;;;31.40;37.20;;;;;;5106740;28;20118;-68
2023/06/17 12:21:36;;;;;;;9.00;4.95;;;31.50;37.20;;;;;;5114809;28;20503;-68
2023/06/17 12:24:03;;;;;;;5.10;4.45;;;31.50;37.50;;;;;;5102122;28;20043;-68
2023/06/17 12:26:31;;;;;;;8.70;5.30;;;31.50;37.10;;;;;;5104628;28;20086;-68
2023/06/17 12:28:57;;;;;;;6.03;4.43;;;31.60;37.80;;;;;;5092938;28;20114;-68
2023/06/17 12:31:25;;;;;;;6.82;4.88;;;31.50;37.70;;;;;;5106947;28;20043;-68
2023/06/17 12:33:50;;;;;;;5.70;4.30;;;31.60;37.80;;;;;;5110651;28;20093;-68
2023/06/17 12:36:17;;;;;;;7.20;5.15;;;31.70;38.20;;;;;;5110178;28;20032;-68
2023/06/17 12:38:44;;;;;;;7.90;4.90;;;31.80;38.40;;;;;;5113005;28;20113;-68
2023/06/17 12:41:10;;;;;;;6.68;4.55;;;31.80;38.20;;;;;;5113150;28;20047;-68